Time;durP1;ratioP1;P1;durP2;ratioP2;P2;SDS_P1;SDS_P2;PMS_P1;PMS_P2;Temp;Humidity;BMP_temperature;BMP_pressure;BME280_temperature;BME280_humidity;BME280_pressure;Samples;Min_cycle;Max_cycle;Signal;HPM_P1;HPM_P2
2023/07/12 00:00:30;;;;;;;13.05;8.02;;;23.80;93.90;;;;;;5030321;28;20099;-69
2023/07/12 00:02:57;;;;;;;15.82;9.38;;;23.80;93.90;;;;;;5030333;28;20036;-67
2023/07/12 00:05:27;;;;;;;13.15;7.60;;;23.80;93.30;;;;;;5063316;28;20039;-68
2023/07/12 00:07:54;;;;;;;11.70;7.47;;;23.80;93.70;;;;;;5046127;28;20030;-68
2023/07/12 00:10:22;;;;;;;15.10;7.82;;;23.80;93.80;;;;;;5030417;28;20053;-66
2023/07/12 00:12:49;;;;;;;11.93;7.65;;;23.90;94.00;;;;;;5030360;28;20383;-67
2023/07/12 00:15:21;;;;;;;18.90;9.00;;;23.80;93.70;;;;;;5030462;28;20033;-67
2023/07/12 00:17:47;;;;;;;14.15;7.53;;;23.80;94.00;;;;;;5030486;28;20042;-67
2023/07/12 00:20:24;;;;;;;13.80;8.90;;;23.80;94.10;;;;;;5030927;28;20022;-68
2023/07/12 00:22:51;;;;;;;13.30;8.10;;;23.80;94.60;;;;;;5030179;28;20033;-67
2023/07/12 00:25:17;;;;;;;13.68;8.25;;;23.80;94.30;;;;;;5030466;28;20026;-68
2023/07/12 00:27:44;;;;;;;12.85;8.05;;;23.80;94.40;;;;;;5031120;28;20116;-68
2023/07/12 00:30:22;;;;;;;12.75;7.63;;;23.80;94.50;;;;;;5034368;28;20323;-66
2023/07/12 00:32:50;;;;;;;14.93;8.07;;;23.80;94.70;;;;;;5034417;28;20045;-67
2023/07/12 00:35:18;;;;;;;;;;;23.90;94.80;;;;;;5035270;28;20076;-67
2023/07/12 00:37:44;;;;;;;;;;;23.90;95.10;;;;;;5034597;28;19909;-68
2023/07/12 00:40:36;;;;;;;11.65;7.07;;;23.90;95.20;;;;;;5034002;28;19925;-66
2023/07/12 00:43:28;;;;;;;13.43;8.02;;;23.90;95.20;;;;;;5033635;28;20030;-67
2023/07/12 00:45:56;;;;;;;10.07;6.85;;;23.90;95.50;;;;;;5034017;28;20379;-68
2023/07/12 00:48:22;;;;;;;11.20;7.45;;;23.90;95.50;;;;;;5033706;28;20348;-67
2023/07/12 00:50:48;;;;;;;11.80;7.45;;;23.90;95.10;;;;;;5032581;28;20064;-67
2023/07/12 00:53:20;;;;;;;15.32;7.47;;;23.90;95.40;;;;;;5034181;28;20029;-67
2023/07/12 00:56:01;;;;;;;13.07;7.90;;;23.90;95.50;;;;;;5033837;28;20037;-67
2023/07/12 00:58:33;;;;;;;12.95;6.70;;;23.90;95.40;;;;;;5033869;28;20040;-67
2023/07/12 01:01:01;;;;;;;11.90;7.70;;;23.90;95.50;;;;;;5033576;28;20052;-67
2023/07/12 01:03:30;;;;;;;13.27;7.20;;;23.90;95.80;;;;;;5033666;28;20380;-67
2023/07/12 01:05:56;;;;;;;11.20;7.28;;;23.90;96.00;;;;;;5033664;28;20352;-67
2023/07/12 01:08:22;;;;;;;11.07;6.63;;;23.90;95.80;;;;;;5033914;28;20399;-67
2023/07/12 01:10:48;;;;;;;14.50;7.80;;;23.80;96.20;;;;;;5032405;28;20041;-67
2023/07/12 01:13:19;;;;;;;13.32;7.97;;;23.80;96.40;;;;;;5033432;28;20025;-67
2023/07/12 01:15:45;;;;;;;11.70;7.43;;;23.80;96.20;;;;;;5033453;28;20063;-69
2023/07/12 01:18:10;;;;;;;13.43;7.28;;;23.80;96.20;;;;;;5033299;28;20472;-66
2023/07/12 01:20:39;;;;;;;12.63;7.60;;;23.80;96.50;;;;;;5032163;28;20021;-67
2023/07/12 01:23:05;;;;;;;10.93;7.22;;;23.80;96.10;;;;;;5033536;28;20443;-67
2023/07/12 01:25:37;;;;;;;12.00;6.75;;;23.80;96.30;;;;;;5033095;28;20460;-67
2023/07/12 01:28:04;;;;;;;14.50;7.47;;;23.80;96.30;;;;;;5033119;28;20513;-67
2023/07/12 01:30:30;;;;;;;17.55;6.85;;;23.90;96.40;;;;;;5032996;28;20039;-67
2023/07/12 01:32:56;;;;;;;17.08;6.97;;;23.80;96.30;;;;;;5032830;28;20091;-68
2023/07/12 01:35:22;;;;;;;15.98;6.57;;;23.90;96.00;;;;;;5042378;28;20251;-67
2023/07/12 01:37:47;;;;;;;12.05;6.20;;;23.70;96.20;;;;;;5072867;28;20462;-68
2023/07/12 01:40:13;;;;;;;10.57;6.75;;;23.60;96.60;;;;;;5072658;28;20336;-68
2023/07/12 01:42:39;;;;;;;15.40;7.05;;;23.50;96.80;;;;;;5072852;28;20029;-67
2023/07/12 01:45:05;;;;;;;9.05;5.82;;;23.50;96.90;;;;;;5072715;28;20292;-67
2023/07/12 01:47:32;;;;;;;18.33;5.95;;;23.30;97.50;;;;;;5072585;28;20055;-67
2023/07/12 01:49:58;;;;;;;15.37;6.20;;;23.20;97.90;;;;;;5071954;28;20036;-66
2023/07/12 01:52:23;;;;;;;8.43;5.75;;;23.20;98.10;;;;;;5072451;28;20032;-67
2023/07/12 01:54:50;;;;;;;12.75;5.55;;;23.10;98.50;;;;;;5071487;28;20089;-68
2023/07/12 01:57:15;;;;;;;10.60;5.88;;;22.90;98.80;;;;;;5072489;28;20432;-67
2023/07/12 01:59:41;;;;;;;15.27;5.68;;;22.80;99.20;;;;;;5072326;28;20020;-67
2023/07/12 02:02:08;;;;;;;11.73;5.72;;;22.80;99.20;;;;;;5072884;28;20032;-67
2023/07/12 02:04:34;;;;;;;9.82;4.90;;;22.80;99.30;;;;;;5072394;28;20055;-67
2023/07/12 02:07:03;;;;;;;12.45;4.97;;;22.70;99.60;;;;;;5072545;28;20036;-67
2023/07/12 02:09:40;;;;;;;8.35;4.63;;;22.50;99.80;;;;;;5072252;28;20040;-67
2023/07/12 02:12:06;;;;;;;10.65;4.97;;;22.40;99.90;;;;;;5071242;28;20021;-67
2023/07/12 02:14:32;;;;;;;7.18;4.20;;;22.30;99.90;;;;;;5072124;28;20335;-65
2023/07/12 02:16:58;;;;;;;8.95;3.95;;;22.30;99.90;;;;;;5072585;28;20025;-67
2023/07/12 02:19:23;;;;;;;7.30;3.58;;;22.20;99.90;;;;;;5072181;28;20459;-66
2023/07/12 02:21:49;;;;;;;7.63;3.97;;;22.20;99.90;;;;;;5072169;28;20070;-67
2023/07/12 02:24:14;;;;;;;7.30;3.63;;;22.10;99.90;;;;;;5071922;28;20112;-67
2023/07/12 02:26:41;;;;;;;10.55;3.72;;;22.10;99.90;;;;;;5071916;28;20451;-65
2023/07/12 02:29:07;;;;;;;7.95;2.95;;;21.90;99.90;;;;;;5072410;28;20020;-66
2023/07/12 02:31:33;;;;;;;9.30;2.97;;;22.00;99.90;;;;;;5070708;28;20397;-67
2023/07/12 02:33:59;;;;;;;7.18;3.25;;;22.10;99.90;;;;;;5071701;28;20113;-66
2023/07/12 02:36:25;;;;;;;7.15;3.00;;;22.10;99.90;;;;;;5071839;28;20111;-67
2023/07/12 02:38:51;;;;;;;8.40;2.90;;;22.00;99.90;;;;;;5070536;28;20029;-65
2023/07/12 02:41:17;;;;;;;6.72;2.72;;;22.00;99.90;;;;;;5071111;28;20035;-67
2023/07/12 02:43:47;;;;;;;5.45;2.58;;;22.20;99.90;;;;;;5071594;28;20028;-67
2023/07/12 02:46:13;;;;;;;8.10;3.05;;;22.20;99.90;;;;;;5071673;28;20108;-66
2023/07/12 02:48:39;;;;;;;6.13;2.95;;;22.20;99.90;;;;;;5071478;28;20032;-67
2023/07/12 02:51:05;;;;;;;6.43;2.40;;;22.10;99.90;;;;;;5071229;28;20082;-67
2023/07/12 02:53:32;;;;;;;13.35;3.10;;;22.00;99.90;;;;;;5071280;28;20434;-67
2023/07/12 02:55:58;;;;;;;7.70;2.58;;;22.00;99.90;;;;;;5070865;28;20494;-67
2023/07/12 02:58:24;;;;;;;5.15;2.35;;;22.10;99.90;;;;;;5071675;28;20109;-68
2023/07/12 03:00:56;;;;;;;9.05;2.42;;;22.10;99.90;;;;;;5071319;28;20047;-67
2023/07/12 03:03:22;;;;;;;4.20;2.25;;;22.10;99.90;;;;;;5071206;28;20029;-67
2023/07/12 03:05:48;;;;;;;7.65;2.35;;;22.20;99.90;;;;;;5071152;28;20090;-68
2023/07/12 03:08:13;;;;;;;5.88;2.30;;;22.10;99.90;;;;;;5071417;28;20350;-67
2023/07/12 03:10:39;;;;;;;6.32;2.75;;;22.00;99.90;;;;;;5070914;28;20379;-68
2023/07/12 03:13:05;;;;;;;11.40;2.58;;;21.90;99.90;;;;;;5069831;28;20111;-67
2023/07/12 03:15:30;;;;;;;6.78;2.95;;;22.00;99.90;;;;;;5070775;28;20117;-67
2023/07/12 03:17:56;;;;;;;5.65;2.60;;;22.00;99.90;;;;;;5070832;28;20020;-67
2023/07/12 03:20:21;;;;;;;7.55;2.60;;;22.00;99.90;;;;;;5070136;28;20024;-67
2023/07/12 03:22:47;;;;;;;11.88;3.13;;;22.00;99.90;;;;;;5069427;28;20554;-67
2023/07/12 03:25:13;;;;;;;9.43;2.83;;;22.00;99.90;;;;;;5070698;28;20036;-67
2023/07/12 03:27:38;;;;;;;4.28;2.20;;;22.10;99.90;;;;;;5070686;28;20481;-67
2023/07/12 03:30:04;;;;;;;6.00;2.50;;;22.10;99.90;;;;;;5070746;28;20470;-67
2023/07/12 03:32:31;;;;;;;5.97;2.55;;;21.90;99.90;;;;;;5070608;28;20025;-68
2023/07/12 03:34:57;;;;;;;6.55;2.47;;;21.90;99.90;;;;;;5070924;28;20053;-67
2023/07/12 03:37:23;;;;;;;6.50;2.50;;;21.90;99.90;;;;;;5070540;28;20040;-67
2023/07/12 03:39:48;;;;;;;4.75;2.75;;;22.00;99.90;;;;;;5070521;28;20024;-67
2023/07/12 03:42:14;;;;;;;3.63;2.10;;;21.90;99.90;;;;;;5070486;28;20059;-68
2023/07/12 03:44:39;;;;;;;5.18;2.50;;;21.90;99.90;;;;;;5070373;28;20047;-67
2023/07/12 03:47:05;;;;;;;7.40;2.90;;;21.80;99.90;;;;;;5071026;28;20027;-67
2023/07/12 03:49:31;;;;;;;4.05;1.98;;;21.70;99.90;;;;;;5070606;28;20423;-67
2023/07/12 03:51:56;;;;;;;4.90;2.35;;;21.70;99.90;;;;;;5070492;28;20024;-66
2023/07/12 03:54:22;;;;;;;7.00;2.10;;;21.60;99.90;;;;;;5070507;28;20116;-67
2023/07/12 03:56:48;;;;;;;6.13;2.25;;;21.60;99.90;;;;;;5069321;28;20103;-67
2023/07/12 03:59:14;;;;;;;6.10;2.05;;;21.60;99.90;;;;;;5070676;28;20048;-68
2023/07/12 04:01:39;;;;;;;5.03;2.70;;;21.60;99.90;;;;;;5069933;28;20029;-67
2023/07/12 04:04:05;;;;;;;4.50;2.85;;;21.70;99.90;;;;;;5069508;28;20457;-67
2023/07/12 04:06:31;;;;;;;8.18;3.30;;;21.60;99.90;;;;;;5070202;28;20031;-67
2023/07/12 04:08:57;;;;;;;9.55;2.35;;;21.60;99.90;;;;;;5070197;28;20036;-66
2023/07/12 04:11:27;;;;;;;5.28;2.63;;;21.50;99.90;;;;;;5070600;28;20025;-67
2023/07/12 04:13:53;;;;;;;6.63;2.60;;;21.60;99.90;;;;;;5070309;28;20032;-67
2023/07/12 04:16:19;;;;;;;3.92;2.10;;;21.60;99.90;;;;;;5070181;28;20094;-66
2023/07/12 04:18:45;;;;;;;5.07;2.40;;;21.50;99.90;;;;;;5070191;28;20362;-67
2023/07/12 04:21:10;;;;;;;7.20;2.30;;;21.60;99.90;;;;;;5070125;28;20389;-67
2023/07/12 04:23:36;;;;;;;4.18;2.13;;;21.60;99.90;;;;;;5070037;28;20019;-67
2023/07/12 04:26:04;;;;;;;4.57;1.90;;;21.70;99.90;;;;;;5070803;28;20209;-66
2023/07/12 04:28:31;;;;;;;5.45;2.63;;;21.60;99.90;;;;;;5070208;28;20035;-67
2023/07/12 04:31:03;;;;;;;5.40;2.28;;;21.60;99.90;;;;;;5070259;28;20048;-67
2023/07/12 04:33:28;;;;;;;7.38;2.28;;;21.50;99.90;;;;;;5069946;28;20068;-66
2023/07/12 04:35:54;;;;;;;7.10;2.38;;;21.50;99.90;;;;;;5069809;28;20044;-67
2023/07/12 04:38:20;;;;;;;2.95;2.10;;;21.40;99.90;;;;;;5070590;28;20220;-68
2023/07/12 04:40:55;;;;;;;5.95;2.40;;;21.50;99.90;;;;;;5069803;28;20033;-67
2023/07/12 04:43:22;;;;;;;5.63;2.45;;;21.60;99.90;;;;;;5068617;28;20036;-67
2023/07/12 04:45:48;;;;;;;6.57;2.40;;;21.60;99.90;;;;;;5070232;28;20036;-67
2023/07/12 04:48:14;;;;;;;4.03;2.22;;;21.60;99.90;;;;;;5069996;28;20270;-67
2023/07/12 04:50:39;;;;;;;3.50;2.47;;;21.50;99.90;;;;;;5072363;28;20094;-66
2023/07/12 04:53:05;;;;;;;6.55;2.50;;;21.60;99.90;;;;;;5072207;28;20067;-67
2023/07/12 04:55:31;;;;;;;5.10;1.88;;;21.70;99.90;;;;;;5069855;28;20240;-66
2023/07/12 04:57:56;;;;;;;5.13;2.13;;;21.70;99.90;;;;;;5068978;28;20063;-67
2023/07/12 05:00:26;;;;;;;6.07;2.13;;;21.70;99.90;;;;;;5069769;28;20036;-67
2023/07/12 05:02:53;;;;;;;4.32;1.83;;;21.60;99.90;;;;;;5069643;28;20498;-66
2023/07/12 05:05:20;;;;;;;5.93;1.75;;;21.50;99.90;;;;;;5070287;28;20111;-68
2023/07/12 05:07:47;;;;;;;3.38;1.95;;;21.60;99.90;;;;;;5069572;28;20466;-67
2023/07/12 05:10:14;;;;;;;2.20;1.10;;;21.50;99.90;;;;;;5069654;28;20431;-67
2023/07/12 05:12:41;;;;;;;3.10;1.40;;;21.60;99.90;;;;;;5069783;28;20184;-67
2023/07/12 05:15:08;;;;;;;3.87;1.60;;;21.50;99.90;;;;;;5072311;28;20521;-67
2023/07/12 05:17:34;;;;;;;6.78;1.70;;;21.40;99.90;;;;;;5073664;28;20306;-68
2023/07/12 05:20:01;;;;;;;1.15;1.05;;;21.40;99.90;;;;;;5073805;28;20024;-69
2023/07/12 05:22:27;;;;;;;7.60;1.43;;;21.40;99.90;;;;;;5071997;28;20055;-67
2023/07/12 05:24:53;;;;;;;2.90;1.30;;;21.30;99.90;;;;;;5071939;28;20362;-69
2023/07/12 05:27:18;;;;;;;2.10;1.00;;;21.30;99.90;;;;;;5073067;28;20077;-67
2023/07/12 05:29:44;;;;;;;2.90;1.23;;;21.20;99.90;;;;;;5072947;28;20458;-67
2023/07/12 05:32:09;;;;;;;3.47;1.20;;;21.40;99.90;;;;;;5073326;28;20020;-68
2023/07/12 05:34:36;;;;;;;3.75;1.10;;;21.40;99.90;;;;;;5072727;28;20102;-68
2023/07/12 05:37:03;;;;;;;2.97;1.40;;;21.30;99.90;;;;;;5072775;28;20446;-68
2023/07/12 05:39:29;;;;;;;9.23;1.30;;;21.40;99.90;;;;;;5072810;28;20066;-68
2023/07/12 05:41:54;;;;;;;5.88;1.40;;;21.60;99.90;;;;;;5072587;28;20528;-67
2023/07/12 05:44:20;;;;;;;4.65;1.48;;;21.60;99.90;;;;;;5071949;28;20063;-67
2023/07/12 05:46:46;;;;;;;4.82;1.52;;;21.60;99.90;;;;;;5071469;28;20024;-68
2023/07/12 05:49:11;;;;;;;2.75;1.40;;;21.60;99.90;;;;;;5072407;28;20052;-69
2023/07/12 05:51:37;;;;;;;4.38;2.70;;;21.70;99.90;;;;;;5071269;28;20366;-68
2023/07/12 05:54:02;;;;;;;9.57;1.85;;;21.70;99.90;;;;;;5072495;28;20024;-69
2023/07/12 05:56:28;;;;;;;5.63;2.40;;;21.70;99.90;;;;;;5072309;28;20029;-67
2023/07/12 05:58:54;;;;;;;5.68;1.25;;;21.60;99.90;;;;;;5072763;28;20054;-67
2023/07/12 06:01:20;;;;;;;2.85;1.35;;;21.50;99.90;;;;;;5072237;28;20470;-68
2023/07/12 06:03:45;;;;;;;3.58;1.33;;;21.50;99.90;;;;;;5042829;28;20055;-67
2023/07/12 06:06:12;;;;;;;8.23;1.27;;;21.50;99.90;;;;;;5032203;28;20155;-68
2023/07/12 06:08:37;;;;;;;2.80;1.30;;;21.50;99.90;;;;;;5047730;28;20017;-66
2023/07/12 06:11:03;;;;;;;4.32;1.42;;;21.50;99.90;;;;;;5032665;28;20037;-68
2023/07/12 06:13:29;;;;;;;2.45;1.10;;;21.60;99.90;;;;;;5032351;28;20034;-67
2023/07/12 06:15:55;;;;;;;4.18;1.23;;;21.70;99.90;;;;;;5031992;28;20106;-69
2023/07/12 06:18:21;;;;;;;5.85;1.05;;;21.70;99.60;;;;;;5032066;28;20029;-68
2023/07/12 06:20:50;;;;;;;1.45;1.15;;;21.70;99.60;;;;;;5032104;28;20033;-68
2023/07/12 06:23:15;;;;;;;5.53;1.30;;;21.90;99.20;;;;;;5032305;28;20501;-66
2023/07/12 06:25:41;;;;;;;1.50;1.10;;;21.90;98.80;;;;;;5031046;28;20033;-68
2023/07/12 06:28:07;;;;;;;5.20;1.83;;;21.90;98.70;;;;;;5032055;28;20033;-68
2023/07/12 06:30:32;;;;;;;7.15;1.63;;;22.00;98.60;;;;;;5031700;28;20029;-68
2023/07/12 06:32:58;;;;;;;3.03;1.40;;;21.90;98.50;;;;;;5031732;28;20120;-67
2023/07/12 06:35:23;;;;;;;2.92;0.90;;;22.00;98.60;;;;;;5032396;28;20033;-67
2023/07/12 06:37:49;;;;;;;2.95;1.33;;;22.20;98.40;;;;;;5031855;28;20049;-68
2023/07/12 06:40:15;;;;;;;2.15;1.00;;;22.30;98.40;;;;;;5046942;28;20036;-67
2023/07/12 06:42:40;;;;;;;3.55;1.10;;;22.50;97.80;;;;;;5031427;28;20029;-67
2023/07/12 06:45:06;;;;;;;4.68;1.55;;;22.50;97.70;;;;;;5031561;28;20120;-66
2023/07/12 06:47:32;;;;;;;3.65;1.30;;;22.60;97.20;;;;;;5031441;28;20044;-66
2023/07/12 06:49:58;;;;;;;4.78;1.77;;;22.70;97.10;;;;;;5031944;28;20029;-66
2023/07/12 06:52:23;;;;;;;2.28;1.15;;;22.80;96.90;;;;;;5031275;28;20033;-67
2023/07/12 06:54:49;;;;;;;1.70;1.00;;;22.80;96.00;;;;;;5031117;28;20498;-66
2023/07/12 06:57:15;;;;;;;2.65;1.05;;;22.70;96.30;;;;;;5030187;28;20033;-67
2023/07/12 06:59:40;;;;;;;2.80;1.10;;;22.70;96.10;;;;;;5031255;28;20025;-68
2023/07/12 07:02:09;;;;;;;1.65;1.00;;;22.80;95.80;;;;;;5031875;28;20033;-66
2023/07/12 07:04:35;;;;;;;2.55;1.20;;;22.60;95.30;;;;;;5031171;28;20061;-67
2023/07/12 07:07:01;;;;;;;2.80;1.02;;;22.60;95.10;;;;;;5031257;28;20060;-67
2023/07/12 07:09:26;;;;;;;1.55;0.90;;;22.50;95.20;;;;;;5030322;28;20057;-67
2023/07/12 07:11:52;;;;;;;2.63;1.00;;;22.50;94.90;;;;;;5031239;28;20030;-68
2023/07/12 07:14:18;;;;;;;1.95;0.85;;;22.50;94.90;;;;;;5031457;28;20539;-67
2023/07/12 07:16:46;;;;;;;1.75;0.80;;;22.60;94.90;;;;;;5030960;28;20061;-67
2023/07/12 07:19:11;;;;;;;10.70;1.33;;;22.70;94.70;;;;;;5046421;28;20036;-67
2023/07/12 07:21:38;;;;;;;3.78;0.70;;;22.80;94.30;;;;;;5029889;28;20025;-67
2023/07/12 07:24:04;;;;;;;1.75;0.90;;;22.80;93.30;;;;;;5030696;28;20099;-67
2023/07/12 07:26:30;;;;;;;1.48;0.60;;;22.60;92.80;;;;;;5029883;28;20123;-67
2023/07/12 07:28:56;;;;;;;1.05;0.63;;;22.70;92.50;;;;;;5031145;28;20486;-67
2023/07/12 07:31:21;;;;;;;2.35;1.13;;;22.80;92.50;;;;;;5030495;28;20033;-67
2023/07/12 07:33:47;;;;;;;1.95;0.80;;;22.90;92.40;;;;;;5029392;28;20049;-67
2023/07/12 07:36:14;;;;;;;1.35;0.52;;;23.00;92.00;;;;;;5030643;28;20102;-68
2023/07/12 07:38:40;;;;;;;1.63;0.85;;;23.00;92.20;;;;;;5030584;28;20033;-66
2023/07/12 07:41:09;;;;;;;3.15;0.77;;;22.90;92.20;;;;;;5031061;28;20083;-66
2023/07/12 07:43:36;;;;;;;3.20;0.80;;;22.80;92.30;;;;;;5030592;28;20119;-67
2023/07/12 07:46:03;;;;;;;1.73;0.90;;;23.00;92.50;;;;;;5046485;28;20355;-67
2023/07/12 07:48:29;;;;;;;3.60;0.83;;;22.90;92.20;;;;;;5030496;28;20590;-68
2023/07/12 07:50:55;;;;;;;1.40;0.50;;;23.00;92.30;;;;;;5030247;28;20386;-67
2023/07/12 07:53:20;;;;;;;2.67;0.77;;;22.90;92.60;;;;;;5030838;28;20036;-66
2023/07/12 07:55:46;;;;;;;4.70;1.02;;;22.90;92.80;;;;;;5030232;28;20359;-67
2023/07/12 07:58:12;;;;;;;1.42;0.90;;;23.00;92.70;;;;;;5030241;28;20033;-67
2023/07/12 08:00:38;;;;;;;3.30;0.75;;;23.10;92.70;;;;;;5030501;28;20033;-69
2023/07/12 08:03:05;;;;;;;4.68;0.90;;;23.10;92.90;;;;;;5030420;28;20136;-68
2023/07/12 08:05:31;;;;;;;1.40;0.80;;;23.10;92.80;;;;;;5030053;28;20091;-68
2023/07/12 08:07:57;;;;;;;1.25;0.98;;;23.20;92.70;;;;;;5030591;28;20032;-68
2023/07/12 08:10:23;;;;;;;0.77;0.60;;;23.20;92.80;;;;;;5030372;28;20411;-67
2023/07/12 08:12:50;;;;;;;2.08;1.13;;;23.10;92.60;;;;;;5030320;28;20029;-67
2023/07/12 08:15:18;;;;;;;1.88;1.02;;;23.00;92.80;;;;;;5030066;28;20029;-67
2023/07/12 08:17:43;;;;;;;3.03;1.10;;;23.30;92.70;;;;;;5030575;28;20021;-66
2023/07/12 08:20:09;;;;;;;2.35;1.10;;;23.50;92.50;;;;;;5031121;28;20044;-67
2023/07/12 08:22:35;;;;;;;2.28;0.70;;;23.60;92.20;;;;;;5030147;28;20486;-66
2023/07/12 08:25:02;;;;;;;4.50;0.80;;;23.40;92.10;;;;;;5029863;28;20026;-66
2023/07/12 08:27:30;;;;;;;6.70;0.80;;;23.40;92.10;;;;;;5045434;28;20506;-67
2023/07/12 08:29:58;;;;;;;;;;;23.20;92.20;;;;;;5030293;28;20038;-67
2023/07/12 08:32:29;;;;;;;1.40;0.80;;;23.10;92.30;;;;;;5030363;28;19913;-67
2023/07/12 08:34:56;;;;;;;2.80;0.82;;;23.10;92.60;;;;;;5010199;28;20061;-69
2023/07/12 08:37:22;;;;;;;2.67;0.85;;;23.10;92.40;;;;;;5025679;28;20128;-66
2023/07/12 08:39:48;;;;;;;2.42;1.08;;;23.20;92.40;;;;;;5030027;28;20088;-66
2023/07/12 08:42:18;;;;;;;2.30;0.60;;;23.10;92.40;;;;;;5029850;28;20029;-67
2023/07/12 08:44:46;;;;;;;2.88;1.10;;;23.10;92.50;;;;;;5030078;28;20448;-67
2023/07/12 08:47:20;;;;;;;2.55;0.93;;;23.20;92.50;;;;;;5030333;28;20096;-67
2023/07/12 08:49:47;;;;;;;4.32;0.95;;;23.20;92.50;;;;;;5031851;28;20029;-67
2023/07/12 08:52:19;;;;;;;1.60;1.00;;;23.30;92.60;;;;;;5033686;28;20029;-68
2023/07/12 08:54:45;;;;;;;2.33;1.60;;;23.40;92.60;;;;;;5033729;28;20033;-66
2023/07/12 08:57:22;;;;;;;3.55;1.38;;;23.20;92.70;;;;;;5033709;28;20075;-67
2023/07/12 09:00:14;;;;;;;6.95;1.45;;;23.40;92.70;;;;;;5033471;28;20041;-66
2023/07/12 09:02:40;;;;;;;3.03;1.17;;;23.20;92.50;;;;;;5033727;28;20037;-67
2023/07/12 09:05:20;;;;;;;3.08;1.73;;;23.20;92.70;;;;;;5033938;28;20024;-68
2023/07/12 09:07:52;;;;;;;4.25;1.52;;;23.40;92.60;;;;;;5033357;28;20037;-67
2023/07/12 09:10:39;;;;;;;7.25;1.65;;;23.30;92.60;;;;;;5033343;28;20030;-66
2023/07/12 09:13:05;;;;;;;;;;;23.10;92.70;;;;;;5033913;28;20025;-65
2023/07/12 09:15:42;;;;;;;5.32;1.73;;;23.00;92.80;;;;;;5033345;28;20059;-66
2023/07/12 09:18:09;;;;;;;3.42;1.85;;;22.90;92.90;;;;;;5032239;28;20037;-66
2023/07/12 09:20:39;;;;;;;4.60;1.60;;;22.80;93.00;;;;;;5033302;28;20029;-67
2023/07/12 09:23:08;;;;;;;2.92;1.70;;;22.90;93.10;;;;;;5033490;28;20021;-66
2023/07/12 09:25:37;;;;;;;4.78;2.10;;;23.10;93.00;;;;;;5033211;28;20045;-66
2023/07/12 09:28:04;;;;;;;3.55;2.13;;;23.20;92.90;;;;;;5033077;28;20034;-66
2023/07/12 09:30:29;;;;;;;5.43;2.10;;;23.50;92.70;;;;;;5033047;28;20041;-67
2023/07/12 09:32:56;;;;;;;2.08;1.70;;;23.70;92.20;;;;;;5032722;28;20034;-67
2023/07/12 09:35:28;;;;;;;3.30;1.83;;;23.80;92.30;;;;;;5033370;28;20388;-66
2023/07/12 09:38:08;;;;;;;6.55;2.08;;;24.20;91.90;;;;;;5033089;28;20349;-67
2023/07/12 09:40:46;;;;;;;3.20;1.92;;;24.50;91.60;;;;;;5048181;28;20061;-66
2023/07/12 09:43:18;;;;;;;3.10;1.52;;;24.80;91.00;;;;;;5032560;28;20463;-66
2023/07/12 09:45:52;;;;;;;3.22;1.60;;;24.90;90.70;;;;;;5032498;28;20067;-67
2023/07/12 09:48:48;;;;;;;3.75;1.75;;;24.70;90.90;;;;;;5032651;28;20025;-67
2023/07/12 09:51:42;;;;;;;6.47;1.90;;;24.40;90.90;;;;;;5032706;28;20472;-66
2023/07/12 09:54:23;;;;;;;3.03;1.55;;;24.70;90.90;;;;;;5027342;28;20068;-66
2023/07/12 09:56:58;;;;;;;2.58;1.30;;;24.50;90.90;;;;;;5032600;28;20033;-66
2023/07/12 09:59:40;;;;;;;2.38;1.50;;;24.40;91.10;;;;;;5048095;28;20025;-66
2023/07/12 10:02:15;;;;;;;3.33;1.88;;;24.70;91.00;;;;;;5011763;28;20349;-66
2023/07/12 10:04:51;;;;;;;4.00;1.33;;;24.60;91.00;;;;;;5030702;28;20060;-67
2023/07/12 10:07:27;;;;;;;3.08;1.50;;;24.70;91.20;;;;;;5032194;28;20045;-67
2023/07/12 10:09:54;;;;;;;4.57;1.73;;;24.70;90.80;;;;;;5032183;28;20030;-67
2023/07/12 10:12:39;;;;;;;3.72;1.50;;;24.90;90.80;;;;;;5032292;28;20512;-67
2023/07/12 10:15:10;;;;;;;2.40;1.48;;;24.70;91.00;;;;;;5032140;28;20022;-66
2023/07/12 10:17:39;;;;;;;3.13;1.52;;;24.70;91.20;;;;;;5032132;28;20021;-66
2023/07/12 10:20:12;;;;;;;3.08;1.30;;;24.60;91.10;;;;;;5032396;28;20083;-66
2023/07/12 10:22:41;;;;;;;4.85;1.40;;;24.80;91.10;;;;;;5032086;28;20372;-67
2023/07/12 10:25:20;;;;;;;3.53;1.80;;;24.90;90.80;;;;;;5032314;28;20179;-67
2023/07/12 10:28:13;;;;;;;4.45;1.20;;;25.20;90.30;;;;;;5031937;28;20359;-66
2023/07/12 10:30:40;;;;;;;3.83;1.38;;;24.70;90.10;;;;;;5027603;28;20468;-67
2023/07/12 10:33:26;;;;;;;3.88;1.10;;;24.70;90.30;;;;;;5031608;28;20030;-66
2023/07/12 10:36:15;;;;;;;10.07;1.55;;;24.40;89.20;;;;;;5030797;28;20041;-66
2023/07/12 10:38:41;;;;;;;2.38;1.58;;;24.40;90.00;;;;;;5047139;28;20034;-68
2023/07/12 10:41:23;;;;;;;2.03;1.30;;;24.60;88.00;;;;;;5032427;28;20018;-67
2023/07/12 10:43:54;;;;;;;5.13;2.03;;;24.80;87.50;;;;;;5031543;28;20053;-67
2023/07/12 10:46:35;;;;;;;2.85;1.38;;;24.70;86.50;;;;;;5031535;28;20041;-68
2023/07/12 10:49:15;;;;;;;5.22;1.27;;;24.90;87.00;;;;;;5031567;28;20033;-67
2023/07/12 10:51:45;;;;;;;3.13;1.13;;;25.20;86.70;;;;;;5031580;28;20044;-67
2023/07/12 10:54:30;;;;;;;2.22;1.08;;;25.20;86.40;;;;;;5031615;28;20053;-68
2023/07/12 10:57:04;;;;;;;4.28;1.10;;;25.20;86.00;;;;;;5031624;28;20033;-69
2023/07/12 10:59:32;;;;;;;3.28;1.05;;;25.20;86.00;;;;;;5031420;28;20183;-67
2023/07/12 11:02:04;;;;;;;4.85;1.10;;;25.40;85.00;;;;;;5032314;28;20029;-67
2023/07/12 11:04:29;;;;;;;7.82;1.33;;;25.30;83.70;;;;;;5031091;28;20044;-66
2023/07/12 11:07:07;;;;;;;2.10;1.20;;;25.30;83.20;;;;;;5031213;28;20037;-69
2023/07/12 11:09:42;;;;;;;;;;;25.40;83.30;;;;;;5031468;28;20371;-69
2023/07/12 11:12:08;;;;;;;2.97;1.00;;;25.40;83.30;;;;;;5030719;28;19913;-68
2023/07/12 11:14:37;;;;;;;4.93;1.48;;;25.50;83.70;;;;;;5031377;28;20223;-69
2023/07/12 11:17:09;;;;;;;3.63;1.08;;;25.60;82.80;;;;;;5031622;28;20021;-68
2023/07/12 11:19:40;;;;;;;1.73;0.93;;;25.60;80.70;;;;;;5031032;28;20080;-68
2023/07/12 11:22:19;;;;;;;3.13;0.98;;;25.50;80.90;;;;;;5030925;28;20049;-68
2023/07/12 11:24:45;;;;;;;4.03;1.27;;;25.40;81.10;;;;;;5030991;28;20522;-68
2023/07/12 11:27:25;;;;;;;3.55;1.38;;;25.40;81.80;;;;;;5046384;28;20025;-68
2023/07/12 11:29:54;;;;;;;5.82;1.50;;;25.20;82.40;;;;;;5031027;28;20064;-69
2023/07/12 11:32:36;;;;;;;2.17;1.02;;;25.20;82.50;;;;;;5031632;28;20025;-69
2023/07/12 11:35:14;;;;;;;4.07;1.40;;;25.20;81.40;;;;;;5046397;28;20064;-68
2023/07/12 11:37:46;;;;;;;4.15;1.33;;;25.50;81.40;;;;;;5030762;28;20044;-69
2023/07/12 11:40:20;;;;;;;3.25;1.48;;;25.60;81.30;;;;;;5030670;28;20529;-68
2023/07/12 11:42:47;;;;;;;2.90;1.02;;;25.60;80.00;;;;;;5030455;28;20487;-69
2023/07/12 11:45:15;;;;;;;3.50;1.45;;;25.70;79.30;;;;;;5046035;28;20080;-68
2023/07/12 11:47:46;;;;;;;5.95;1.52;;;25.70;78.40;;;;;;5030534;28;20029;-68
2023/07/12 11:50:23;;;;;;;7.00;1.05;;;25.70;78.70;;;;;;5031149;28;20033;-68
2023/07/12 11:52:50;;;;;;;4.47;1.40;;;25.50;78.00;;;;;;5029850;28;20091;-68
2023/07/12 11:55:19;;;;;;;7.88;1.48;;;25.50;77.90;;;;;;5029573;28;20036;-68
2023/07/12 11:57:46;;;;;;;6.60;1.23;;;25.80;78.10;;;;;;5030556;28;20460;-68
2023/07/12 12:00:20;;;;;;;4.57;1.20;;;25.90;77.60;;;;;;5030478;28;20072;-68
2023/07/12 12:02:55;;;;;;;6.35;1.27;;;25.90;79.10;;;;;;5030665;28;20021;-68
2023/07/12 12:05:26;;;;;;;7.55;1.80;;;25.90;79.60;;;;;;5030922;28;20496;-68
2023/07/12 12:07:56;;;;;;;6.28;1.58;;;25.80;80.40;;;;;;5045919;28;20088;-68
2023/07/12 12:10:29;;;;;;;7.28;1.58;;;25.70;80.50;;;;;;5030251;28;20036;-69
2023/07/12 12:12:55;;;;;;;5.13;1.95;;;25.60;80.50;;;;;;5030468;28;20417;-68
2023/07/12 12:15:26;;;;;;;6.22;1.63;;;25.80;80.90;;;;;;5029354;28;20040;-68
2023/07/12 12:17:53;;;;;;;6.15;1.50;;;25.90;80.60;;;;;;5045673;28;20367;-68
2023/07/12 12:20:22;;;;;;;5.53;1.40;;;26.00;80.60;;;;;;5031016;28;20431;-69
2023/07/12 12:23:14;;;;;;;5.45;1.58;;;26.10;78.60;;;;;;5030391;28;20041;-69
2023/07/12 12:25:51;;;;;;;6.45;1.38;;;26.00;77.30;;;;;;5049870;28;20037;-68
2023/07/12 12:28:31;;;;;;;4.75;1.52;;;26.10;76.80;;;;;;5049699;28;20410;-69
2023/07/12 12:31:10;;;;;;;4.65;1.40;;;26.10;75.90;;;;;;5033990;28;20113;-68
2023/07/12 12:33:45;;;;;;;5.15;1.63;;;26.10;76.20;;;;;;5049271;28;20069;-68
2023/07/12 12:36:23;;;;;;;5.50;2.08;;;26.20;75.30;;;;;;5034410;28;20052;-68
2023/07/12 12:39:03;;;;;;;6.75;1.67;;;26.20;75.10;;;;;;5034624;28;20058;-67
2023/07/12 12:41:39;;;;;;;5.70;1.40;;;26.10;74.40;;;;;;5034512;28;20017;-68
2023/07/12 12:44:13;;;;;;;6.55;1.80;;;26.20;74.30;;;;;;5050029;28;20033;-68
2023/07/12 12:46:40;;;;;;;8.88;1.63;;;26.10;73.80;;;;;;5033939;28;20057;-68
2023/07/12 12:49:16;;;;;;;3.65;1.48;;;26.00;73.60;;;;;;5033927;28;20029;-68
2023/07/12 12:51:42;;;;;;;8.18;1.75;;;25.90;73.50;;;;;;5032634;28;20037;-70
2023/07/12 12:54:09;;;;;;;3.60;1.58;;;26.00;73.80;;;;;;5034159;28;20083;-68